Time;durP1;ratioP1;P1;durP2;ratioP2;P2;SDS_P1;SDS_P2;PMS_P1;PMS_P2;Temp;Humidity;BMP_temperature;BMP_pressure;BME280_temperature;BME280_humidity;BME280_pressure;Samples;Min_cycle;Max_cycle;Signal;HPM_P1;HPM_P2
2022/06/30 00:01:53;;;;;;;16.47;12.30;;;20.20;99.90;21.80;96465.00;;;;5072362;28;20204;-70
2022/06/30 00:04:43;;;;;;;13.27;11.17;;;20.30;99.90;21.90;96473.00;;;;5057959;28;20200;-70
2022/06/30 00:07:32;;;;;;;13.53;11.73;;;20.30;99.90;21.90;96486.00;;;;5031731;28;20228;-70
2022/06/30 00:10:22;;;;;;;12.87;11.37;;;20.30;99.90;22.00;96510.00;;;;5033287;28;20194;-70
2022/06/30 00:13:11;;;;;;;18.03;12.70;;;20.40;99.90;22.00;96536.00;;;;5033128;28;20202;-70
2022/06/30 00:15:59;;;;;;;13.57;12.20;;;20.40;99.90;21.80;96547.00;;;;5032784;28;20213;-72
2022/06/30 00:18:48;;;;;;;14.20;11.63;;;20.30;99.90;21.80;96534.00;;;;5038287;28;20201;-71
2022/06/30 00:21:38;;;;;;;15.00;12.73;;;20.30;99.90;21.90;96526.00;;;;5053450;28;20201;-71
2022/06/30 00:24:27;;;;;;;12.53;11.37;;;20.30;99.90;21.80;96539.00;;;;5053373;28;20209;-71
2022/06/30 00:27:16;;;;;;;12.30;11.17;;;20.30;99.90;21.60;96555.00;;;;5043933;28;20232;-72
2022/06/30 00:30:06;;;;;;;13.63;11.10;;;20.30;99.90;21.70;96547.00;;;;5033451;28;20194;-71
2022/06/30 00:32:55;;;;;;;14.67;12.60;;;20.20;99.90;21.70;96547.00;;;;5033317;28;20209;-71
2022/06/30 00:35:44;;;;;;;14.90;11.77;;;20.20;99.90;21.80;96527.00;;;;5033919;28;20217;-71
2022/06/30 00:38:34;;;;;;;17.70;12.53;;;20.30;99.90;21.70;96510.00;;;;5032090;28;20200;-71
2022/06/30 00:41:23;;;;;;;19.03;12.33;;;20.20;99.90;21.80;96498.00;;;;5033839;28;20201;-70
2022/06/30 00:44:13;;;;;;;13.63;10.87;;;20.30;99.90;21.80;96490.00;;;;5044976;28;20192;-71
2022/06/30 00:47:05;;;;;;;11.70;10.13;;;20.30;99.90;21.70;96495.00;;;;5052969;28;20224;-72
2022/06/30 00:49:54;;;;;;;17.73;11.37;;;20.30;99.90;21.70;96507.00;;;;5053404;28;20212;-71
2022/06/30 00:52:44;;;;;;;14.80;12.23;;;20.30;99.90;21.60;96501.00;;;;5053041;28;20201;-70
2022/06/30 00:55:36;;;;;;;12.93;11.60;;;20.20;99.90;21.40;96478.00;;;;5051999;28;20255;-70
2022/06/30 00:58:26;;;;;;;14.03;11.00;;;20.70;99.90;21.50;96463.00;;;;5052599;28;20216;-69
2022/06/30 01:01:17;;;;;;;13.00;11.73;;;20.10;99.90;21.60;96462.00;;;;5052164;28;20204;-69
2022/06/30 01:04:07;;;;;;;18.10;10.73;;;20.20;99.90;21.50;96471.00;;;;5050935;28;20208;-69
2022/06/30 01:06:57;;;;;;;14.27;12.13;;;20.10;99.90;21.70;96477.00;;;;5051068;28;20224;-69
2022/06/30 01:12:55;;;;;;;16.03;11.57;;;20.10;99.90;21.60;96478.00;;;;5029533;28;20692;-70
2022/06/30 01:15:44;;;;;;;12.47;11.07;;;20.10;99.90;21.70;96472.00;;;;5052171;28;20224;-70
2022/06/30 01:18:34;;;;;;;11.73;10.63;;;20.10;99.90;21.50;96487.00;;;;5048172;28;20205;-70
2022/06/30 01:21:29;;;;;;;14.17;10.17;;;20.10;99.90;21.10;96474.00;;;;5031639;28;20196;-67
2022/06/30 01:24:18;;;;;;;12.67;11.47;;;20.00;99.90;21.50;96465.00;;;;5031187;28;20212;-68
2022/06/30 01:27:07;;;;;;;11.93;10.67;;;20.00;99.90;21.70;96459.00;;;;5039905;28;20279;-68
2022/06/30 01:29:57;;;;;;;14.70;10.50;;;20.00;99.90;21.80;96449.00;;;;5030633;28;20197;-68
2022/06/30 01:32:46;;;;;;;11.53;10.20;;;20.00;99.90;21.70;96478.00;;;;5031744;28;20205;-68
2022/06/30 01:35:35;;;;;;;12.03;10.70;;;20.00;99.90;21.10;96503.00;;;;5029506;28;20217;-69
2022/06/30 01:38:25;;;;;;;13.43;11.23;;;20.00;99.90;21.50;96501.00;;;;5031956;28;20228;-67
2022/06/30 01:41:15;;;;;;;23.23;13.50;;;20.00;99.90;21.70;96484.00;;;;5030611;28;20920;-67
2022/06/30 01:44:04;;;;;;;17.13;11.80;;;20.00;99.90;21.80;96474.00;;;;5031368;28;20193;-67
2022/06/30 01:46:53;;;;;;;15.63;11.57;;;20.00;99.90;21.80;96476.00;;;;5030470;28;20232;-68
2022/06/30 01:49:42;;;;;;;16.73;12.07;;;20.00;99.90;21.70;96476.00;;;;5031534;28;20201;-68
2022/06/30 01:52:30;;;;;;;12.60;10.73;;;20.00;99.90;21.70;96470.00;;;;5031551;28;20684;-68
2022/06/30 01:55:21;;;;;;;12.00;10.80;;;20.00;99.90;21.80;96501.00;;;;5031556;28;20229;-68
2022/06/30 01:58:10;;;;;;;12.03;10.70;;;20.00;99.90;21.70;96516.00;;;;5030371;28;20202;-68
2022/06/30 02:00:58;;;;;;;12.47;10.07;;;20.00;99.90;21.60;96536.00;;;;5031065;28;20198;-69
2022/06/30 02:03:47;;;;;;;13.50;9.97;;;19.90;99.90;21.20;96523.00;;;;5030431;28;20201;-66
2022/06/30 02:06:36;;;;;;;13.97;10.80;;;19.90;99.90;21.40;96516.00;;;;5030985;28;20217;-66
2022/06/30 02:09:25;;;;;;;14.13;11.37;;;19.80;99.90;21.50;96526.00;;;;5030442;28;20217;-66
2022/06/30 02:15:23;;;;;;;16.93;10.30;;;19.80;99.90;21.20;96522.00;;;;5030522;28;20601;-66
2022/06/30 02:18:12;;;;;;;15.90;9.63;;;19.80;99.90;21.10;96532.00;;;;5030697;28;20201;-66
2022/06/30 02:21:01;;;;;;;14.30;10.50;;;19.70;99.90;21.00;96538.00;;;;5049641;28;20637;-66
2022/06/30 02:23:51;;;;;;;12.37;9.87;;;19.60;99.90;21.10;96520.00;;;;5050727;28;20223;-66
2022/06/30 02:26:40;;;;;;;17.67;10.20;;;19.60;99.90;21.20;96522.00;;;;5047682;28;20217;-66
2022/06/30 02:29:30;;;;;;;13.73;10.07;;;19.60;99.90;21.20;96520.00;;;;5034063;28;20192;-66
2022/06/30 02:32:19;;;;;;;21.87;10.10;;;19.60;99.90;21.00;96529.00;;;;5033530;28;20572;-66
2022/06/30 02:35:09;;;;;;;14.80;11.40;;;19.50;99.90;20.80;96542.00;;;;5048976;28;20227;-67
2022/06/30 02:37:58;;;;;;;14.23;9.33;;;19.40;99.90;21.00;96540.00;;;;5049219;28;20204;-67
2022/06/30 02:40:47;;;;;;;15.60;10.83;;;19.40;99.90;21.20;96547.00;;;;5051217;28;20197;-67
2022/06/30 02:43:35;;;;;;;15.23;10.50;;;19.50;99.90;21.20;96540.00;;;;5049927;28;20196;-67
2022/06/30 02:46:25;;;;;;;12.80;9.37;;;19.50;99.90;20.80;96546.00;;;;5041819;28;20223;-67
2022/06/30 02:49:15;;;;;;;19.47;10.23;;;19.40;99.90;20.70;96560.00;;;;5049748;28;20202;-67
2022/06/30 02:52:04;;;;;;;10.97;9.37;;;19.40;99.90;21.00;96560.00;;;;5049690;28;20188;-68
2022/06/30 02:54:53;;;;;;;10.60;8.90;;;19.40;99.90;21.00;96554.00;;;;5049848;28;20209;-68
2022/06/30 02:57:42;;;;;;;10.73;8.93;;;19.40;99.90;20.80;96560.00;;;;5049559;28;20196;-68
2022/06/30 03:00:31;;;;;;;11.63;9.93;;;19.30;99.90;20.80;96567.00;;;;5049792;28;20672;-67
2022/06/30 03:03:21;;;;;;;12.37;9.00;;;19.30;99.90;21.00;96561.00;;;;5051007;28;20203;-67
2022/06/30 03:06:10;;;;;;;11.97;10.53;;;19.30;99.90;21.10;96558.00;;;;5053640;28;20292;-67
2022/06/30 03:09:00;;;;;;;11.43;8.70;;;19.30;99.90;21.00;96561.00;;;;5047068;28;20695;-67
2022/06/30 03:11:49;;;;;;;13.43;9.93;;;19.30;99.90;20.90;96560.00;;;;5049030;28;20193;-67
2022/06/30 03:14:39;;;;;;;12.07;9.53;;;19.30;99.90;21.00;96575.00;;;;5050273;28;20196;-67
2022/06/30 03:17:27;;;;;;;13.87;9.83;;;19.30;99.90;20.90;96579.00;;;;5049841;28;20197;-67
2022/06/30 03:20:18;;;;;;;10.47;9.47;;;19.30;99.90;20.60;96571.00;;;;5033064;28;20202;-67
2022/06/30 03:23:06;;;;;;;14.10;9.30;;;19.20;99.90;20.80;96577.00;;;;5028873;28;20201;-68
2022/06/30 03:25:55;;;;;;;11.33;10.23;;;19.20;99.90;20.70;96554.00;;;;5035661;28;20220;-67
2022/06/30 03:28:44;;;;;;;11.27;10.13;;;19.20;99.90;20.60;96560.00;;;;5041117;28;20684;-65
2022/06/30 03:31:34;;;;;;;13.03;10.27;;;19.20;99.90;21.00;96576.00;;;;5050153;28;20196;-65
2022/06/30 03:34:22;;;;;;;11.77;9.00;;;19.20;99.90;21.00;96572.00;;;;5051172;28;20200;-66
2022/06/30 03:37:13;;;;;;;11.83;9.27;;;19.30;99.90;21.10;96569.00;;;;5058878;28;20211;-66
2022/06/30 03:40:01;;;;;;;12.07;10.03;;;19.20;99.90;21.10;96570.00;;;;5045409;28;20549;-66
2022/06/30 03:42:50;;;;;;;9.70;8.90;;;19.30;99.90;21.20;96570.00;;;;5053557;28;20193;-66
2022/06/30 03:45:39;;;;;;;16.53;9.70;;;19.30;99.90;21.20;96558.00;;;;5053230;28;20608;-66
2022/06/30 03:48:28;;;;;;;10.83;9.23;;;19.30;99.90;20.90;96572.00;;;;5052604;28;20224;-66
2022/06/30 03:51:17;;;;;;;10.83;9.63;;;19.30;99.90;21.00;96569.00;;;;5053572;28;20205;-66
2022/06/30 03:54:07;;;;;;;10.53;9.50;;;19.30;99.90;21.00;96568.00;;;;5053369;28;20196;-66
2022/06/30 03:56:56;;;;;;;10.60;9.03;;;19.40;99.90;21.10;96573.00;;;;5053637;28;20243;-66
2022/06/30 03:59:45;;;;;;;9.10;8.17;;;19.30;99.90;21.10;96577.00;;;;5053075;28;20200;-66
2022/06/30 04:02:34;;;;;;;10.03;8.57;;;19.30;99.90;21.10;96575.00;;;;5053294;28;20207;-65
2022/06/30 04:05:22;;;;;;;9.00;8.10;;;19.40;99.90;21.10;96574.00;;;;5052755;28;20217;-66
2022/06/30 04:08:11;;;;;;;9.33;8.53;;;19.40;99.90;21.10;96573.00;;;;5052050;28;20240;-66
2022/06/30 04:11:01;;;;;;;11.37;8.87;;;19.40;99.90;21.10;96569.00;;;;5052951;28;20207;-66
2022/06/30 04:13:50;;;;;;;9.77;8.33;;;19.40;99.90;20.80;96571.00;;;;5052654;28;20583;-67
2022/06/30 04:16:39;;;;;;;11.13;8.83;;;19.40;99.90;21.10;96561.00;;;;5052522;28;20220;-67
2022/06/30 04:19:30;;;;;;;9.53;7.90;;;19.40;99.90;21.20;96560.00;;;;5041843;28;20205;-66
2022/06/30 04:22:18;;;;;;;14.20;8.40;;;19.40;99.90;21.30;96561.00;;;;5031984;28;20211;-67
2022/06/30 04:25:08;;;;;;;9.97;8.47;;;19.50;99.90;21.10;96552.00;;;;5032538;28;20226;-70
2022/06/30 04:28:00;;;;;;;10.90;9.40;;;19.50;99.90;20.80;96559.00;;;;5041147;28;20224;-68
2022/06/30 04:33:55;;;;;;;11.90;8.43;;;19.40;99.90;21.30;96554.00;;;;5028452;28;20584;-67
2022/06/30 04:36:44;;;;;;;9.60;8.70;;;19.50;99.90;21.50;96556.00;;;;5028362;28;20221;-67
2022/06/30 04:39:33;;;;;;;11.90;8.93;;;19.50;99.90;21.50;96563.00;;;;5031510;28;20704;-67
2022/06/30 04:42:21;;;;;;;9.80;8.80;;;19.60;99.90;21.30;96567.00;;;;5032438;28;20200;-67
2022/06/30 04:45:12;;;;;;;9.53;8.63;;;19.60;99.90;21.50;96554.00;;;;5031971;28;20213;-67
2022/06/30 04:48:01;;;;;;;11.80;8.30;;;19.70;99.90;21.70;96557.00;;;;5030975;28;20217;-67
2022/06/30 04:50:49;;;;;;;8.83;8.03;;;19.70;99.90;21.70;96563.00;;;;5032182;28;20673;-67
2022/06/30 04:53:40;;;;;;;10.20;8.30;;;19.80;99.90;21.90;96553.00;;;;5041142;28;20230;-67
2022/06/30 04:56:30;;;;;;;9.97;7.87;;;19.90;99.90;21.90;96556.00;;;;5035645;28;20239;-67
2022/06/30 04:59:19;;;;;;;9.03;8.13;;;19.90;99.90;21.60;96569.00;;;;5051948;28;20576;-67
2022/06/30 05:02:09;;;;;;;8.60;7.90;;;19.90;99.90;21.60;96559.00;;;;5052119;28;20204;-67
2022/06/30 05:04:58;;;;;;;8.50;7.40;;;19.90;99.90;21.50;96552.00;;;;5051634;28;20207;-68
2022/06/30 05:07:47;;;;;;;9.83;7.90;;;19.90;99.90;21.60;96543.00;;;;5052368;28;20199;-67
2022/06/30 05:10:35;;;;;;;9.17;8.23;;;19.90;99.90;21.50;96547.00;;;;5051810;28;20189;-67
2022/06/30 05:13:24;;;;;;;10.97;8.37;;;19.90;99.90;21.00;96556.00;;;;5051494;28;20196;-67
2022/06/30 05:16:14;;;;;;;15.53;11.50;;;19.80;99.90;20.80;96553.00;;;;5052324;28;20221;-68
2022/06/30 05:19:04;;;;;;;9.57;8.60;;;19.70;99.90;21.30;96559.00;;;;5044055;28;20696;-68
2022/06/30 05:21:53;;;;;;;11.83;8.57;;;19.70;99.90;21.60;96551.00;;;;5047680;28;20216;-67
2022/06/30 05:27:48;;;;;;;8.70;7.97;;;19.90;99.90;22.10;96558.00;;;;5042818;28;20192;-67
2022/06/30 05:30:37;;;;;;;9.40;8.40;;;20.10;99.90;22.10;96562.00;;;;5046664;28;20555;-67
2022/06/30 05:33:26;;;;;;;10.67;8.50;;;20.10;99.90;22.20;96559.00;;;;5031444;28;20243;-67
2022/06/30 05:36:16;;;;;;;13.07;10.13;;;20.30;99.90;22.40;96555.00;;;;5031612;28;20221;-67
2022/06/30 05:39:05;;;;;;;10.30;9.23;;;;;22.80;96557.00;;;;5031583;28;20197;-67
2022/06/30 05:41:54;;;;;;;9.07;7.67;;;20.60;99.90;23.00;96557.00;;;;5045619;28;20228;-67
2022/06/30 05:44:42;;;;;;;11.50;8.90;;;20.70;99.90;22.90;96553.00;;;;5051724;28;20197;-67
2022/06/30 05:47:31;;;;;;;9.00;8.13;;;20.90;99.90;22.90;96559.00;;;;5050813;28;20197;-67
2022/06/30 05:50:22;;;;;;;8.60;7.80;;;21.00;99.90;23.20;96560.00;;;;5043584;28;20231;-68
2022/06/30 05:53:12;;;;;;;11.17;8.53;;;21.10;99.90;23.00;96555.00;;;;5050430;28;20205;-68
2022/06/30 05:56:01;;;;;;;7.87;7.17;;;21.20;99.90;23.30;96556.00;;;;5085434;22;20238;-63
2022/06/30 05:58:50;;;;;;;8.90;8.00;;;21.30;99.90;23.10;96552.00;;;;5087947;28;20670;-63
2022/06/30 06:01:38;;;;;;;8.37;6.37;;;21.40;99.90;23.60;96560.00;;;;5089102;28;20199;-63
2022/06/30 06:04:28;;;;;;;8.83;7.43;;;21.50;99.90;24.10;96559.00;;;;5079402;28;20555;-63
2022/06/30 06:07:17;;;;;;;10.50;7.90;;;21.70;99.90;24.30;96551.00;;;;5089688;28;20234;-63
2022/06/30 06:10:09;;;;;;;10.37;7.00;;;21.90;99.90;24.80;96552.00;;;;5079772;28;20576;-62
2022/06/30 06:13:01;;;;;;;6.23;5.73;;;22.10;99.90;25.10;96557.00;;;;5086886;28;20191;-63
2022/06/30 06:15:49;;;;;;;5.37;4.97;;;22.40;99.90;25.30;96563.00;;;;5082297;28;20231;-63
2022/06/30 06:18:38;;;;;;;7.30;6.00;;;22.70;99.90;25.30;96555.00;;;;5061093;28;20210;-63
2022/06/30 06:21:27;;;;;;;6.67;5.93;;;22.90;99.90;25.60;96560.00;;;;5044565;28;20244;-63
2022/06/30 06:24:16;;;;;;;6.40;5.23;;;23.10;99.90;25.40;96559.00;;;;5050158;28;20204;-63
2022/06/30 06:27:07;;;;;;;5.80;4.73;;;23.20;99.90;25.50;96560.00;;;;5065966;28;20242;-63
2022/06/30 06:29:56;;;;;;;7.50;5.77;;;23.30;99.90;25.60;96562.00;;;;5061182;28;20216;-63
2022/06/30 06:32:45;;;;;;;5.97;5.47;;;23.40;99.90;25.60;96558.00;;;;5056850;28;20196;-63
2022/06/30 06:35:34;;;;;;;6.20;5.63;;;23.40;99.90;25.70;96554.00;;;;5049979;28;20226;-63
2022/06/30 06:38:22;;;;;;;6.03;4.97;;;23.50;99.90;25.80;96558.00;;;;5049704;28;20203;-63
2022/06/30 06:41:11;;;;;;;5.93;5.40;;;23.60;99.90;25.80;96566.00;;;;5049537;28;20201;-63
2022/06/30 06:44:01;;;;;;;6.20;5.60;;;23.60;99.90;25.60;96565.00;;;;5049894;28;20207;-63
2022/06/30 06:46:50;;;;;;;7.03;5.37;;;23.70;99.90;25.70;96555.00;;;;5050949;28;20581;-64
2022/06/30 06:49:39;;;;;;;5.67;5.27;;;23.70;99.90;25.60;96559.00;;;;5059029;28;21499;-63
2022/06/30 06:52:28;;;;;;;5.40;4.80;;;23.80;99.90;25.60;96561.00;;;;5067057;28;20189;-63
2022/06/30 06:55:17;;;;;;;5.77;5.10;;;23.80;99.90;25.80;96558.00;;;;5055402;28;20211;-63
2022/06/30 06:58:08;;;;;;;4.87;4.47;;;23.80;99.90;26.10;96563.00;;;;5069065;28;20208;-63
2022/06/30 07:00:59;;;;;;;5.20;4.57;;;23.90;99.90;26.30;96559.00;;;;5068948;28;20203;-63
2022/06/30 07:03:47;;;;;;;6.27;4.73;;;24.00;99.90;26.40;96561.00;;;;5070045;28;20203;-63
2022/06/30 07:06:36;;;;;;;12.00;4.83;;;24.20;99.90;26.20;96566.00;;;;5068872;28;20248;-63
2022/06/30 07:09:25;;;;;;;8.67;5.07;;;24.30;99.90;26.40;96569.00;;;;5064437;28;20225;-63
2022/06/30 07:12:14;;;;;;;6.50;5.90;;;24.40;99.90;26.70;96576.00;;;;5073314;28;20209;-63
2022/06/30 07:15:03;;;;;;;5.70;5.20;;;24.40;99.90;26.70;96561.00;;;;5065261;28;20199;-63
2022/06/30 07:17:53;;;;;;;5.23;4.73;;;24.60;99.90;26.50;96564.00;;;;5067138;28;20194;-63
2022/06/30 07:20:42;;;;;;;6.00;5.27;;;24.60;99.90;26.50;96564.00;;;;5066221;28;21501;-63
2022/06/30 07:23:31;;;;;;;7.17;5.60;;;24.60;99.90;26.50;96561.00;;;;5065157;28;20220;-62
2022/06/30 07:26:20;;;;;;;5.93;5.33;;;24.60;99.90;26.90;96565.00;;;;5075733;28;20213;-62
2022/06/30 07:29:09;;;;;;;5.23;4.73;;;24.70;99.90;26.90;96560.00;;;;5072125;28;20190;-62
2022/06/30 07:31:58;;;;;;;5.27;4.80;;;24.80;99.90;26.80;96553.00;;;;5070381;28;20564;-62
2022/06/30 07:34:48;;;;;;;6.03;4.77;;;24.90;99.90;26.80;96559.00;;;;5067810;28;20198;-62
2022/06/30 07:37:39;;;;;;;5.43;4.90;;;24.90;99.90;26.90;96560.00;;;;5058601;28;20205;-63
2022/06/30 07:40:27;;;;;;;8.60;5.10;;;25.00;99.90;27.00;96551.00;;;;5064929;28;20225;-63
2022/06/30 07:43:16;;;;;;;5.53;4.87;;;25.10;99.90;27.10;96557.00;;;;5063527;28;20215;-62
2022/06/30 07:46:05;;;;;;;5.40;4.90;;;25.10;99.90;27.10;96553.00;;;;5062893;28;20238;-63
2022/06/30 07:48:54;;;;;;;6.10;5.60;;;25.20;99.90;27.60;96549.00;;;;5061787;28;20202;-63
2022/06/30 07:51:44;;;;;;;5.40;4.90;;;25.40;99.90;27.70;96560.00;;;;5061730;28;20237;-63
2022/06/30 07:54:34;;;;;;;5.03;4.50;;;25.50;99.90;27.60;96556.00;;;;5062204;28;20265;-63
2022/06/30 07:57:23;;;;;;;6.63;6.03;;;25.60;99.90;27.70;96560.00;;;;5059477;28;20226;-64
2022/06/30 08:00:24;;;;;;;5.47;5.07;;;25.70;99.90;27.70;96543.00;;;;5065424;28;20193;-63
2022/06/30 08:03:12;;;;;;;5.80;5.33;;;25.80;99.90;28.20;96545.00;;;;5066052;28;20189;-63
2022/06/30 08:06:01;;;;;;;6.60;5.57;;;25.90;99.90;28.10;96545.00;;;;5064217;28;20225;-63
2022/06/30 08:08:52;;;;;;;6.13;5.17;;;26.00;99.90;28.20;96542.00;;;;5062383;28;20202;-62
2022/06/30 08:11:41;;;;;;;5.67;4.83;;;26.10;99.90;28.50;96548.00;;;;5061058;28;20628;-63
2022/06/30 08:14:29;;;;;;;6.03;5.27;;;26.30;99.90;28.70;96540.00;;;;5061945;28;20202;-64
2022/06/30 08:17:18;;;;;;;5.50;4.93;;;26.40;99.90;28.80;96553.00;;;;5061039;28;20222;-64
2022/06/30 08:20:08;;;;;;;5.27;4.87;;;26.50;99.90;28.70;96555.00;;;;5059271;28;20194;-63
2022/06/30 08:22:57;;;;;;;5.80;4.67;;;26.50;99.90;28.50;96551.00;;;;5062052;28;20203;-63
2022/06/30 08:25:47;;;;;;;7.27;4.90;;;26.60;99.90;28.90;96559.00;;;;5064077;28;20226;-63
2022/06/30 08:28:36;;;;;;;5.17;4.67;;;26.70;99.90;28.70;96560.00;;;;5063880;28;20205;-63
2022/06/30 08:31:25;;;;;;;5.77;5.20;;;26.70;99.90;29.00;96550.00;;;;5063610;28;20222;-63
2022/06/30 08:34:14;;;;;;;7.07;5.47;;;26.80;99.90;28.20;96559.00;;;;5063115;28;20226;-63
2022/06/30 08:37:03;;;;;;;6.17;5.57;;;26.70;99.90;28.30;96565.00;;;;5067906;28;20226;-62
2022/06/30 08:43:00;;;;;;;5.80;5.30;;;26.50;99.90;28.10;96545.00;;;;5068725;28;20197;-64
2022/06/30 08:45:51;;;;;;;7.77;5.77;;;26.40;99.90;28.30;96545.00;;;;5062866;28;20220;-63
2022/06/30 08:48:40;;;;;;;6.20;5.60;;;26.50;99.90;28.30;96547.00;;;;5053859;28;20675;-62
2022/06/30 08:51:31;;;;;;;5.77;5.00;;;26.40;99.90;28.50;96556.00;;;;5050718;28;20230;-63
2022/06/30 08:54:23;;;;;;;6.20;5.60;;;26.40;99.90;29.00;96545.00;;;;5059372;28;20207;-63
2022/06/30 08:57:12;;;;;;;5.87;4.73;;;26.60;99.90;29.00;96554.00;;;;5070310;28;20284;-63
2022/06/30 09:00:03;;;;;;;6.37;5.80;;;26.70;99.90;28.50;96554.00;;;;5055559;28;20205;-64
2022/06/30 09:02:52;;;;;;;5.43;5.03;;;26.70;99.90;28.70;96532.00;;;;5071135;28;20201;-62
2022/06/30 09:05:46;;;;;;;6.93;5.90;;;26.70;99.90;29.20;96540.00;;;;5071395;28;20229;-63
2022/06/30 09:08:35;;;;;;;8.17;5.87;;;26.90;99.90;29.10;96548.00;;;;5067412;28;20206;-63
2022/06/30 09:11:46;;;;;;;6.00;5.40;;;27.10;99.90;29.50;96530.00;;;;5062460;28;20231;-63
2022/06/30 09:14:38;;;;;;;5.93;5.27;;;27.10;99.90;29.50;96549.00;;;;5068690;28;20205;-63
2022/06/30 09:17:30;;;;;;;5.90;5.30;;;27.30;99.90;29.40;96551.00;;;;5068848;28;20219;-63
2022/06/30 09:20:34;;;;;;;8.33;5.30;;;27.30;99.90;29.60;96547.00;;;;5068688;28;20197;-62
2022/06/30 09:23:25;;;;;;;5.70;5.10;;;27.40;99.90;29.60;96544.00;;;;5068925;28;20202;-62
2022/06/30 09:26:20;;;;;;;6.27;5.77;;;27.50;99.90;29.80;96549.00;;;;5066514;28;20221;-62
2022/06/30 09:29:11;;;;;;;6.50;5.63;;;27.50;99.90;29.80;96545.00;;;;5067109;28;20196;-62
2022/06/30 09:32:21;;;;;;;6.43;5.70;;;27.60;99.90;30.30;96540.00;;;;5059723;28;20222;-62
2022/06/30 09:35:12;;;;;;;5.83;5.27;;;27.80;99.90;30.70;96535.00;;;;5071814;28;20196;-62
2022/06/30 09:38:04;;;;;;;6.00;5.40;;;28.00;99.90;30.90;96514.00;;;;5065694;28;20195;-62
2022/06/30 09:41:02;;;;;;;5.53;4.77;;;28.30;99.90;31.10;96524.00;;;;5073557;28;20207;-62
2022/06/30 09:43:50;;;;;;;5.97;5.47;;;28.60;99.90;31.00;96525.00;;;;5057462;28;20206;-62
2022/06/30 09:46:56;;;;;;;5.93;5.43;;;28.70;99.90;31.20;96535.00;;;;5069785;28;20228;-62
2022/06/30 09:49:47;;;;;;;7.50;5.63;;;28.80;99.90;31.70;96524.00;;;;5061048;28;20210;-62
2022/06/30 09:52:37;;;;;;;5.38;4.80;;;28.90;99.90;32.00;96531.00;;;;5060655;28;20206;-62
2022/06/30 09:55:38;;;;;;;5.57;4.72;;;29.20;99.90;31.70;96542.00;;;;5066006;28;20580;-62
2022/06/30 09:58:40;;;;;;;6.68;5.22;;;29.30;99.90;31.50;96534.00;;;;5062032;28;20194;-62
2022/06/30 10:01:30;;;;;;;5.03;4.25;;;29.30;99.90;31.30;96539.00;;;;5059185;28;20214;-62
2022/06/30 10:04:19;;;;;;;6.15;4.60;;;29.40;99.90;31.10;96534.00;;;;5062139;28;20586;-62
2022/06/30 10:07:08;;;;;;;5.30;4.07;;;29.40;99.90;30.70;96519.00;;;;5069359;28;20613;-62
2022/06/30 10:10:04;;;;;;;4.80;4.10;;;28.90;99.90;31.60;96541.00;;;;5070173;28;20579;-63
2022/06/30 10:12:53;;;;;;;6.50;4.35;;;29.20;99.90;31.70;96534.00;;;;5061197;28;20197;-62
2022/06/30 10:15:46;;;;;;;9.38;4.55;;;29.20;99.90;32.50;96508.00;;;;5063097;28;20546;-63
2022/06/30 10:18:39;;;;;;;6.45;4.80;;;29.60;99.90;31.10;96535.00;;;;5062259;28;20202;-62
2022/06/30 10:21:28;;;;;;;5.82;4.40;;;29.70;99.90;30.30;96530.00;;;;5059355;28;20193;-63
2022/06/30 10:24:19;;;;;;;4.75;4.35;;;29.40;98.10;31.70;96513.00;;;;5060204;28;20227;-63
2022/06/30 10:27:16;;;;;;;5.93;4.65;;;29.40;99.90;32.10;96530.00;;;;5065577;28;20230;-63
2022/06/30 10:30:11;;;;;;;5.53;4.80;;;29.50;99.90;31.60;96531.00;;;;5060897;28;20211;-63
2022/06/30 10:33:06;;;;;;;4.75;4.35;;;29.50;99.70;31.60;96531.00;;;;5063300;28;20205;-63
2022/06/30 10:36:05;;;;;;;5.43;4.60;;;29.50;99.20;31.60;96531.00;;;;5061493;28;20213;-63
2022/06/30 10:39:04;;;;;;;5.80;5.07;;;29.40;99.90;31.20;96530.00;;;;5063415;28;20267;-63
2022/06/30 10:41:53;;;;;;;6.70;4.38;;;29.30;97.10;31.80;96479.00;;;;5061812;28;20191;-63
2022/06/30 10:44:43;;;;;;;7.32;4.32;;;29.40;96.70;32.40;96509.00;;;;5063162;28;20212;-63
2022/06/30 10:47:56;;;;;;;5.18;4.72;;;29.70;96.30;32.10;96518.00;;;;5066341;28;20202;-63
2022/06/30 10:50:45;;;;;;;6.32;4.85;;;29.70;96.90;31.60;96523.00;;;;5061944;28;20264;-62
2022/06/30 10:53:56;;;;;;;5.65;4.88;;;29.70;97.70;32.00;96530.00;;;;5062179;28;20227;-63
2022/06/30 10:56:58;;;;;;;5.57;5.15;;;29.60;98.60;32.00;96518.00;;;;5067894;28;20233;-62
2022/06/30 10:59:49;;;;;;;5.10;4.60;;;29.60;98.70;32.20;96528.00;;;;5069443;28;20193;-62
2022/06/30 11:02:41;;;;;;;5.20;4.70;;;29.70;99.90;32.00;96527.00;;;;5068890;28;20262;-62
2022/06/30 11:05:30;;;;;;;7.43;4.75;;;29.80;99.90;32.10;96518.00;;;;5047178;28;20231;-63
2022/06/30 11:08:49;;;;;;;5.22;4.82;;;29.80;99.90;33.30;96508.00;;;;5069012;28;20198;-62
2022/06/30 11:11:44;;;;;;;4.90;4.50;;;30.10;99.90;33.50;96505.00;;;;5062943;28;20215;-62
2022/06/30 11:14:42;;;;;;;6.53;5.93;;;30.60;99.80;33.20;96519.00;;;;5069511;28;20195;-62
2022/06/30 11:17:38;;;;;;;5.38;4.85;;;30.70;98.90;33.10;96513.00;;;;5049481;28;20230;-62
2022/06/30 11:20:27;;;;;;;5.78;4.75;;;30.70;99.20;32.70;96506.00;;;;5068303;28;20208;-62
2022/06/30 11:23:18;;;;;;;5.20;4.80;;;30.70;98.10;33.30;96490.00;;;;5067558;28;20222;-62
2022/06/30 11:29:18;;;;;;;5.95;5.35;;;31.10;97.00;34.10;96487.00;;;;5068753;28;20209;-63
2022/06/30 11:32:09;;;;;;;9.65;5.63;;;31.40;96.50;34.20;96499.00;;;;5068660;28;20218;-62
2022/06/30 11:34:59;;;;;;;5.22;4.85;;;31.50;95.30;33.70;96466.00;;;;5067814;28;20200;-63
2022/06/30 11:37:50;;;;;;;6.35;5.80;;;31.60;94.90;34.90;96453.00;;;;5063098;28;20232;-63
2022/06/30 11:40:39;;;;;;;9.40;5.35;;;31.90;95.30;34.90;96452.00;;;;5063386;28;20196;-63
2022/06/30 11:43:28;;;;;;;6.40;5.80;;;32.30;93.80;35.30;96444.00;;;;5061327;28;20197;-63
2022/06/30 11:46:17;;;;;;;6.03;5.53;;;32.40;93.00;35.70;96444.00;;;;5062625;28;20690;-62
2022/06/30 11:49:06;;;;;;;5.25;4.75;;;32.70;93.70;35.90;96442.00;;;;5059949;28;20205;-63
2022/06/30 11:51:57;;;;;;;8.60;5.70;;;33.00;92.50;35.70;96429.00;;;;5056784;28;20235;-63
2022/06/30 11:54:50;;;;;;;6.25;5.65;;;33.10;91.20;36.40;96427.00;;;;5066078;28;20195;-63
2022/06/30 11:57:42;;;;;;;7.32;5.40;;;33.40;92.60;35.70;96432.00;;;;5066321;28;20241;-63
2022/06/30 12:00:33;;;;;;;6.88;5.85;;;33.50;90.30;36.10;96429.00;;;;5065247;28;20200;-63
2022/06/30 12:03:21;;;;;;;7.28;6.55;;;33.60;87.60;35.60;96433.00;;;;5057836;28;20609;-63
2022/06/30 12:06:11;;;;;;;8.50;6.43;;;33.70;85.10;36.00;96429.00;;;;5069530;28;20230;-63
2022/06/30 12:09:01;;;;;;;8.77;6.38;;;33.70;84.00;36.40;96426.00;;;;5078114;28;20230;-63
2022/06/30 12:11:52;;;;;;;7.22;5.80;;;33.80;85.30;36.70;96428.00;;;;5069109;28;20223;-63
2022/06/30 12:14:41;;;;;;;6.88;5.75;;;34.00;85.30;36.80;96431.00;;;;5059085;28;20215;-63
2022/06/30 12:17:33;;;;;;;6.55;5.95;;;34.20;84.60;36.80;96422.00;;;;5059865;28;20231;-64
2022/06/30 12:20:26;;;;;;;6.15;5.45;;;34.30;83.60;36.00;96419.00;;;;5067735;28;20208;-64
2022/06/30 12:23:15;;;;;;;6.90;5.70;;;34.50;79.70;37.00;96416.00;;;;5064879;28;20204;-64
2022/06/30 12:26:07;;;;;;;6.25;5.65;;;34.50;83.30;33.90;96413.00;;;;5069633;28;20608;-65
2022/06/30 12:28:56;;;;;;;8.20;5.78;;;34.00;75.10;34.00;96417.00;;;;5062843;28;20215;-65
2022/06/30 12:32:02;;;;;;;6.85;6.10;;;33.80;76.80;34.30;96414.00;;;;5056351;28;20224;-65
2022/06/30 12:34:52;;;;;;;7.32;6.18;;;33.40;76.20;35.20;96419.00;;;;5068557;28;20260;-65
2022/06/30 12:37:45;;;;;;;6.70;6.05;;;33.40;78.80;33.00;96408.00;;;;5069109;28;20679;-64
2022/06/30 12:40:40;;;;;;;9.27;6.70;;;32.90;77.30;33.80;96398.00;;;;5069839;28;20565;-64
2022/06/30 12:43:45;;;;;;;9.93;6.85;;;32.60;77.50;35.90;96397.00;;;;5064944;28;20675;-64
2022/06/30 12:46:40;;;;;;;6.30;5.80;;;32.70;81.80;37.50;96410.00;;;;5064977;28;20219;-64
2022/06/30 12:49:29;;;;;;;9.25;6.05;;;33.40;84.00;37.40;96407.00;;;;5059848;28;20200;-64
2022/06/30 12:52:20;;;;;;;5.53;5.03;;;34.00;78.60;36.80;96401.00;;;;5071380;28;20718;-64